sensor_id;sensor_type;location;lat;lon;timestamp;temperature;humidity
4431;DHT22;2228;48.140;11.488;2023-02-25T00:01:13;3.00;99.90
4431;DHT22;2228;48.140;11.488;2023-02-25T00:03:40;2.70;99.90
4431;DHT22;2228;48.140;11.488;2023-02-25T00:06:11;2.80;99.90
4431;DHT22;2228;48.140;11.488;2023-02-25T00:08:41;2.80;99.90
4431;DHT22;2228;48.140;11.488;2023-02-25T00:11:09;2.70;99.90
4431;DHT22;2228;48.140;11.488;2023-02-25T00:13:38;2.70;99.90
4431;DHT22;2228;48.140;11.488;2023-02-25T00:16:07;2.60;1.00
4431;DHT22;2228;48.140;11.488;2023-02-25T00:18:34;2.60;99.90
4431;DHT22;2228;48.140;11.488;2023-02-25T00:21:04;2.50;99.90
4431;DHT22;2228;48.140;11.488;2023-02-25T00:23:32;2.50;99.90
4431;DHT22;2228;48.140;11.488;2023-02-25T00:26:00;2.50;1.00
4431;DHT22;2228;48.140;11.488;2023-02-25T00:28:28;2.40;99.90
4431;DHT22;2228;48.140;11.488;2023-02-25T00:30:55;2.40;99.90
4431;DHT22;2228;48.140;11.488;2023-02-25T00:33:22;2.30;99.90
4431;DHT22;2228;48.140;11.488;2023-02-25T00:35:49;2.30;99.90
4431;DHT22;2228;48.140;11.488;2023-02-25T00:38:17;2.30;99.90
4431;DHT22;2228;48.140;11.488;2023-02-25T00:40:45;2.40;99.90
4431;DHT22;2228;48.140;11.488;2023-02-25T00:43:12;2.30;99.90
4431;DHT22;2228;48.140;11.488;2023-02-25T00:45:39;2.30;99.90
4431;DHT22;2228;48.140;11.488;2023-02-25T00:48:07;2.20;99.90
4431;DHT22;2228;48.140;11.488;2023-02-25T00:50:35;2.20;99.90
4431;DHT22;2228;48.140;11.488;2023-02-25T00:53:04;2.10;99.90
4431;DHT22;2228;48.140;11.488;2023-02-25T00:55:31;2.10;99.90
4431;DHT22;2228;48.140;11.488;2023-02-25T00:58:00;2.00;99.90
4431;DHT22;2228;48.140;11.488;2023-02-25T01:00:28;2.10;99.90
4431;DHT22;2228;48.140;11.488;2023-02-25T01:02:56;2.00;99.90
4431;DHT22;2228;48.140;11.488;2023-02-25T01:05:23;2.00;99.90
4431;DHT22;2228;48.140;11.488;2023-02-25T01:07:50;1.80;99.90
4431;DHT22;2228;48.140;11.488;2023-02-25T01:10:17;1.90;99.90
4431;DHT22;2228;48.140;11.488;2023-02-25T01:12:45;1.90;99.90
4431;DHT22;2228;48.140;11.488;2023-02-25T01:15:14;1.90;99.90
4431;DHT22;2228;48.140;11.488;2023-02-25T01:17:41;1.80;99.90
4431;DHT22;2228;48.140;11.488;2023-02-25T01:20:09;1.60;99.90
4431;DHT22;2228;48.140;11.488;2023-02-25T01:22:38;1.60;99.90
4431;DHT22;2228;48.140;11.488;2023-02-25T01:25:10;1.50;1.00
4431;DHT22;2228;48.140;11.488;2023-02-25T01:27:37;1.60;1.00
4431;DHT22;2228;48.140;11.488;2023-02-25T01:30:06;1.60;99.90
4431;DHT22;2228;48.140;11.488;2023-02-25T01:32:34;1.50;99.90
4431;DHT22;2228;48.140;11.488;2023-02-25T01:35:02;1.40;1.00
4431;DHT22;2228;48.140;11.488;2023-02-25T01:37:29;1.40;1.00
4431;DHT22;2228;48.140;11.488;2023-02-25T01:39:55;1.50;1.00
4431;DHT22;2228;48.140;11.488;2023-02-25T01:42:22;1.50;1.00
4431;DHT22;2228;48.140;11.488;2023-02-25T01:45:28;1.50;1.00
4431;DHT22;2228;48.140;11.488;2023-02-25T01:48:01;1.50;1.00
4431;DHT22;2228;48.140;11.488;2023-02-25T01:50:35;1.40;1.00
4431;DHT22;2228;48.140;11.488;2023-02-25T01:53:03;1.50;1.00
4431;DHT22;2228;48.140;11.488;2023-02-25T01:55:31;1.70;1.00
4431;DHT22;2228;48.140;11.488;2023-02-25T01:57:59;1.60;1.00
4431;DHT22;2228;48.140;11.488;2023-02-25T02:00:28;1.60;1.00
4431;DHT22;2228;48.140;11.488;2023-02-25T02:02:58;1.50;1.00
4431;DHT22;2228;48.140;11.488;2023-02-25T02:05:36;1.50;1.00
4431;DHT22;2228;48.140;11.488;2023-02-25T02:08:06;1.40;1.00
4431;DHT22;2228;48.140;11.488;2023-02-25T02:10:34;1.40;1.00
4431;DHT22;2228;48.140;11.488;2023-02-25T02:13:02;1.40;1.00
4431;DHT22;2228;48.140;11.488;2023-02-25T02:15:32;1.50;1.00
4431;DHT22;2228;48.140;11.488;2023-02-25T02:21:57;1.60;1.00
4431;DHT22;2228;48.140;11.488;2023-02-25T02:28:15;1.60;1.00
4431;DHT22;2228;48.140;11.488;2023-02-25T02:31:19;1.60;1.00
4431;DHT22;2228;48.140;11.488;2023-02-25T02:33:55;1.60;1.00
4431;DHT22;2228;48.140;11.488;2023-02-25T02:36:29;1.50;1.00
4431;DHT22;2228;48.140;11.488;2023-02-25T02:39:06;1.60;1.00
4431;DHT22;2228;48.140;11.488;2023-02-25T02:41:35;1.60;1.00
4431;DHT22;2228;48.140;11.488;2023-02-25T02:44:07;1.70;1.00
4431;DHT22;2228;48.140;11.488;2023-02-25T02:47:02;1.60;1.00
4431;DHT22;2228;48.140;11.488;2023-02-25T02:50:03;1.60;1.00
4431;DHT22;2228;48.140;11.488;2023-02-25T02:52:34;1.60;1.00
4431;DHT22;2228;48.140;11.488;2023-02-25T06:01:52;2.00;1.00
4431;DHT22;2228;48.140;11.488;2023-02-25T06:04:19;2.00;99.90
4431;DHT22;2228;48.140;11.488;2023-02-25T06:06:46;2.00;99.90
4431;DHT22;2228;48.140;11.488;2023-02-25T06:09:15;2.00;1.00
4431;DHT22;2228;48.140;11.488;2023-02-25T06:11:44;2.00;99.90
4431;DHT22;2228;48.140;11.488;2023-02-25T06:14:12;2.00;99.90
4431;DHT22;2228;48.140;11.488;2023-02-25T06:16:40;2.00;99.90
4431;DHT22;2228;48.140;11.488;2023-02-25T06:19:10;2.00;99.90
4431;DHT22;2228;48.140;11.488;2023-02-25T06:21:38;1.90;99.90
4431;DHT22;2228;48.140;11.488;2023-02-25T06:24:06;2.00;99.90
4431;DHT22;2228;48.140;11.488;2023-02-25T06:26:33;2.00;99.90
4431;DHT22;2228;48.140;11.488;2023-02-25T06:29:06;2.00;99.90
4431;DHT22;2228;48.140;11.488;2023-02-25T06:31:33;2.00;99.90
4431;DHT22;2228;48.140;11.488;2023-02-25T06:34:00;2.00;99.90
4431;DHT22;2228;48.140;11.488;2023-02-25T06:36:28;2.10;99.90
4431;DHT22;2228;48.140;11.488;2023-02-25T06:38:56;2.10;99.90
4431;DHT22;2228;48.140;11.488;2023-02-25T06:41:23;2.10;99.90
4431;DHT22;2228;48.140;11.488;2023-02-25T06:43:50;2.10;99.90
4431;DHT22;2228;48.140;11.488;2023-02-25T06:46:19;2.40;99.90
4431;DHT22;2228;48.140;11.488;2023-02-25T06:48:46;2.30;99.90
4431;DHT22;2228;48.140;11.488;2023-02-25T06:51:13;2.30;99.90
4431;DHT22;2228;48.140;11.488;2023-02-25T06:53:42;2.40;99.90
4431;DHT22;2228;48.140;11.488;2023-02-25T06:56:11;2.40;99.90
4431;DHT22;2228;48.140;11.488;2023-02-25T06:58:39;2.40;99.90
4431;DHT22;2228;48.140;11.488;2023-02-25T07:01:06;2.30;99.90
4431;DHT22;2228;48.140;11.488;2023-02-25T07:03:33;2.40;99.90
4431;DHT22;2228;48.140;11.488;2023-02-25T07:06:00;2.40;99.90
4431;DHT22;2228;48.140;11.488;2023-02-25T07:08:27;2.30;99.90
4431;DHT22;2228;48.140;11.488;2023-02-25T07:10:56;2.20;99.90
4431;DHT22;2228;48.140;11.488;2023-02-25T07:13:34;2.20;99.90
4431;DHT22;2228;48.140;11.488;2023-02-25T07:16:02;2.40;99.90
4431;DHT22;2228;48.140;11.488;2023-02-25T07:18:29;2.40;99.90
4431;DHT22;2228;48.140;11.488;2023-02-25T07:20:56;2.40;99.90
4431;DHT22;2228;48.140;11.488;2023-02-25T07:23:23;2.50;99.90
4431;DHT22;2228;48.140;11.488;2023-02-25T07:25:50;2.50;99.90
4431;DHT22;2228;48.140;11.488;2023-02-25T07:28:18;2.50;99.90
4431;DHT22;2228;48.140;11.488;2023-02-25T07:30:45;2.40;99.90
4431;DHT22;2228;48.140;11.488;2023-02-25T07:33:12;2.40;99.90
4431;DHT22;2228;48.140;11.488;2023-02-25T07:35:39;2.50;99.90
4431;DHT22;2228;48.140;11.488;2023-02-25T07:38:06;2.80;99.90
4431;DHT22;2228;48.140;11.488;2023-02-25T07:40:37;2.50;99.90
4431;DHT22;2228;48.140;11.488;2023-02-25T07:43:05;2.50;99.90
4431;DHT22;2228;48.140;11.488;2023-02-25T07:45:34;2.60;99.90
4431;DHT22;2228;48.140;11.488;2023-02-25T07:48:01;2.60;99.90
4431;DHT22;2228;48.140;11.488;2023-02-25T07:50:28;2.80;99.90
4431;DHT22;2228;48.140;11.488;2023-02-25T07:52:55;2.90;99.90
4431;DHT22;2228;48.140;11.488;2023-02-25T07:55:22;2.90;99.90
4431;DHT22;2228;48.140;11.488;2023-02-25T07:57:49;2.90;89.80
4431;DHT22;2228;48.140;11.488;2023-02-25T08:00:16;2.80;25.10
4431;DHT22;2228;48.140;11.488;2023-02-25T08:02:45;2.80;30.20
4431;DHT22;2228;48.140;11.488;2023-02-25T08:05:12;2.80;82.30
4431;DHT22;2228;48.140;11.488;2023-02-25T08:07:38;2.80;23.80
4431;DHT22;2228;48.140;11.488;2023-02-25T08:10:06;2.70;71.80
4431;DHT22;2228;48.140;11.488;2023-02-25T08:12:33;2.70;1.00
4431;DHT22;2228;48.140;11.488;2023-02-25T08:15:00;2.80;1.00
4431;DHT22;2228;48.140;11.488;2023-02-25T08:17:27;2.80;1.00
4431;DHT22;2228;48.140;11.488;2023-02-25T08:19:58;2.70;1.00
4431;DHT22;2228;48.140;11.488;2023-02-25T08:22:25;2.60;1.00
4431;DHT22;2228;48.140;11.488;2023-02-25T08:24:52;2.60;1.00
4431;DHT22;2228;48.140;11.488;2023-02-25T08:27:19;2.50;1.00
4431;DHT22;2228;48.140;11.488;2023-02-25T08:29:46;2.60;1.00
4431;DHT22;2228;48.140;11.488;2023-02-25T08:32:13;2.60;1.00
4431;DHT22;2228;48.140;11.488;2023-02-25T08:34:40;2.60;1.00
4431;DHT22;2228;48.140;11.488;2023-02-25T08:37:09;2.80;1.00
4431;DHT22;2228;48.140;11.488;2023-02-25T08:39:36;2.90;1.00
4431;DHT22;2228;48.140;11.488;2023-02-25T08:42:04;3.10;1.00
4431;DHT22;2228;48.140;11.488;2023-02-25T08:44:31;3.20;1.00
4431;DHT22;2228;48.140;11.488;2023-02-25T08:46:57;3.30;1.00
4431;DHT22;2228;48.140;11.488;2023-02-25T08:49:24;3.10;1.00
4431;DHT22;2228;48.140;11.488;2023-02-25T08:51:51;3.20;1.00
4431;DHT22;2228;48.140;11.488;2023-02-25T08:54:20;3.00;1.00
4431;DHT22;2228;48.140;11.488;2023-02-25T08:56:49;3.00;1.00
4431;DHT22;2228;48.140;11.488;2023-02-25T08:59:17;2.90;1.00
4431;DHT22;2228;48.140;11.488;2023-02-25T09:01:44;2.90;1.00
4431;DHT22;2228;48.140;11.488;2023-02-25T09:04:11;2.90;99.90
4431;DHT22;2228;48.140;11.488;2023-02-25T09:06:38;2.80;99.90
4431;DHT22;2228;48.140;11.488;2023-02-25T09:09:05;2.80;99.90
4431;DHT22;2228;48.140;11.488;2023-02-25T09:11:34;2.80;99.90
4431;DHT22;2228;48.140;11.488;2023-02-25T09:14:01;2.70;99.90
4431;DHT22;2228;48.140;11.488;2023-02-25T09:16:31;2.70;99.90
4431;DHT22;2228;48.140;11.488;2023-02-25T09:18:58;2.90;99.90
4431;DHT22;2228;48.140;11.488;2023-02-25T09:21:25;2.90;99.90
4431;DHT22;2228;48.140;11.488;2023-02-25T09:23:52;3.00;99.90
4431;DHT22;2228;48.140;11.488;2023-02-25T09:26:20;3.00;99.90
4431;DHT22;2228;48.140;11.488;2023-02-25T09:28:48;3.10;99.90
4431;DHT22;2228;48.140;11.488;2023-02-25T09:31:16;3.20;99.90
4431;DHT22;2228;48.140;11.488;2023-02-25T09:33:43;3.20;99.90
4431;DHT22;2228;48.140;11.488;2023-02-25T09:36:13;3.40;99.90
4431;DHT22;2228;48.140;11.488;2023-02-25T09:38:43;3.40;99.90
4431;DHT22;2228;48.140;11.488;2023-02-25T09:41:27;3.60;99.90
4431;DHT22;2228;48.140;11.488;2023-02-25T09:44:04;4.00;59.20
4431;DHT22;2228;48.140;11.488;2023-02-25T09:46:36;4.00;1.00
4431;DHT22;2228;48.140;11.488;2023-02-25T09:49:10;4.30;56.80
4431;DHT22;2228;48.140;11.488;2023-02-25T09:51:44;4.90;1.00
4431;DHT22;2228;48.140;11.488;2023-02-25T09:54:19;4.70;1.00
4431;DHT22;2228;48.140;11.488;2023-02-25T09:56:47;4.60;1.00
4431;DHT22;2228;48.140;11.488;2023-02-25T09:59:17;4.50;1.00
4431;DHT22;2228;48.140;11.488;2023-02-25T10:01:50;4.30;1.00
4431;DHT22;2228;48.140;11.488;2023-02-25T10:04:26;4.20;1.00
4431;DHT22;2228;48.140;11.488;2023-02-25T10:06:54;4.20;1.00
4431;DHT22;2228;48.140;11.488;2023-02-25T10:09:29;4.10;1.00
4431;DHT22;2228;48.140;11.488;2023-02-25T10:12:05;4.00;1.00
4431;DHT22;2228;48.140;11.488;2023-02-25T10:14:55;4.00;1.00
4431;DHT22;2228;48.140;11.488;2023-02-25T10:17:34;4.10;1.00
4431;DHT22;2228;48.140;11.488;2023-02-25T10:23:11;4.40;1.00
4431;DHT22;2228;48.140;11.488;2023-02-25T10:25:44;4.40;1.00
4431;DHT22;2228;48.140;11.488;2023-02-25T10:28:16;4.30;1.00
4431;DHT22;2228;48.140;11.488;2023-02-25T10:30:51;4.40;1.00
4431;DHT22;2228;48.140;11.488;2023-02-25T10:33:24;4.40;1.00
4431;DHT22;2228;48.140;11.488;2023-02-25T10:35:55;4.80;1.00
4431;DHT22;2228;48.140;11.488;2023-02-25T10:38:23;4.40;1.00
4431;DHT22;2228;48.140;11.488;2023-02-25T10:40:51;4.30;1.00
4431;DHT22;2228;48.140;11.488;2023-02-25T10:43:21;4.20;1.00
4431;DHT22;2228;48.140;11.488;2023-02-25T10:45:55;4.30;1.00
4431;DHT22;2228;48.140;11.488;2023-02-25T10:48:24;4.60;1.00
4431;DHT22;2228;48.140;11.488;2023-02-25T10:51:05;4.40;1.00
4431;DHT22;2228;48.140;11.488;2023-02-25T10:53:34;4.40;1.00
4431;DHT22;2228;48.140;11.488;2023-02-25T10:56:02;4.60;1.00
4431;DHT22;2228;48.140;11.488;2023-02-25T10:58:37;4.70;1.00
4431;DHT22;2228;48.140;11.488;2023-02-25T11:01:15;4.70;1.00
4431;DHT22;2228;48.140;11.488;2023-02-25T11:03:52;4.70;1.00
4431;DHT22;2228;48.140;11.488;2023-02-25T11:06:23;4.90;1.00
4431;DHT22;2228;48.140;11.488;2023-02-25T11:08:52;5.00;1.00
4431;DHT22;2228;48.140;11.488;2023-02-25T11:11:21;5.20;1.00
4431;DHT22;2228;48.140;11.488;2023-02-25T11:13:59;5.60;1.00
4431;DHT22;2228;48.140;11.488;2023-02-25T11:16:28;5.50;1.00
4431;DHT22;2228;48.140;11.488;2023-02-25T11:18:58;5.70;1.00
4431;DHT22;2228;48.140;11.488;2023-02-25T11:21:29;5.90;1.00
4431;DHT22;2228;48.140;11.488;2023-02-25T11:23:59;5.90;1.00
4431;DHT22;2228;48.140;11.488;2023-02-25T11:26:29;6.00;1.00
4431;DHT22;2228;48.140;11.488;2023-02-25T11:28:59;5.80;1.00
4431;DHT22;2228;48.140;11.488;2023-02-25T11:31:33;5.90;1.00
4431;DHT22;2228;48.140;11.488;2023-02-25T11:34:04;5.80;1.00
4431;DHT22;2228;48.140;11.488;2023-02-25T11:36:34;5.90;1.00
4431;DHT22;2228;48.140;11.488;2023-02-25T11:39:12;5.90;1.00
4431;DHT22;2228;48.140;11.488;2023-02-25T11:41:40;5.70;1.00
4431;DHT22;2228;48.140;11.488;2023-02-25T11:44:23;5.40;1.00
4431;DHT22;2228;48.140;11.488;2023-02-25T11:47:05;5.20;1.00
4431;DHT22;2228;48.140;11.488;2023-02-25T11:49:43;5.30;1.00
4431;DHT22;2228;48.140;11.488;2023-02-25T11:52:20;5.50;1.00
4431;DHT22;2228;48.140;11.488;2023-02-25T11:54:58;5.60;1.00
4431;DHT22;2228;48.140;11.488;2023-02-25T11:57:34;5.50;1.00
4431;DHT22;2228;48.140;11.488;2023-02-25T12:00:15;5.50;1.00
4431;DHT22;2228;48.140;11.488;2023-02-25T12:02:56;5.50;1.00
4431;DHT22;2228;48.140;11.488;2023-02-25T12:05:59;5.40;1.00
4431;DHT22;2228;48.140;11.488;2023-02-25T12:08:38;5.50;1.00
4431;DHT22;2228;48.140;11.488;2023-02-25T12:17:23;5.60;1.00
4431;DHT22;2228;48.140;11.488;2023-02-25T12:26:02;7.10;1.00
4431;DHT22;2228;48.140;11.488;2023-02-25T12:28:53;8.00;1.00
4431;DHT22;2228;48.140;11.488;2023-02-25T12:34:54;9.10;1.00
4431;DHT22;2228;48.140;11.488;2023-02-25T12:37:38;9.70;1.00
4431;DHT22;2228;48.140;11.488;2023-02-25T12:40:39;9.20;1.00
4431;DHT22;2228;48.140;11.488;2023-02-25T12:43:17;8.00;1.00
4431;DHT22;2228;48.140;11.488;2023-02-25T12:46:07;7.10;1.00
4431;DHT22;2228;48.140;11.488;2023-02-25T12:49:10;6.50;1.00
4431;DHT22;2228;48.140;11.488;2023-02-25T12:51:59;6.10;1.00
4431;DHT22;2228;48.140;11.488;2023-02-25T12:54:51;5.80;1.00
4431;DHT22;2228;48.140;11.488;2023-02-25T12:57:31;5.70;1.00
4431;DHT22;2228;48.140;11.488;2023-02-25T13:00:23;6.10;1.00
4431;DHT22;2228;48.140;11.488;2023-02-25T13:03:09;6.50;1.00
4431;DHT22;2228;48.140;11.488;2023-02-25T13:12:03;7.30;1.00
4431;DHT22;2228;48.140;11.488;2023-02-25T13:14:37;7.90;1.00
4431;DHT22;2228;48.140;11.488;2023-02-25T13:17:20;7.30;1.00
4431;DHT22;2228;48.140;11.488;2023-02-25T13:22:52;8.00;1.00
4431;DHT22;2228;48.140;11.488;2023-02-25T13:25:33;8.00;1.00
4431;DHT22;2228;48.140;11.488;2023-02-25T13:28:22;8.10;1.00
4431;DHT22;2228;48.140;11.488;2023-02-25T13:30:56;8.60;1.00
4431;DHT22;2228;48.140;11.488;2023-02-25T13:33:34;8.90;1.00
4431;DHT22;2228;48.140;11.488;2023-02-25T13:36:16;8.60;1.00
4431;DHT22;2228;48.140;11.488;2023-02-25T13:42:07;7.80;1.00
4431;DHT22;2228;48.140;11.488;2023-02-25T13:45:12;8.00;1.00
4431;DHT22;2228;48.140;11.488;2023-02-25T13:50:43;7.70;1.00
4431;DHT22;2228;48.140;11.488;2023-02-25T13:56:36;7.50;1.00
4431;DHT22;2228;48.140;11.488;2023-02-25T13:59:19;6.80;1.00
4431;DHT22;2228;48.140;11.488;2023-02-25T14:02:00;6.40;1.00
4431;DHT22;2228;48.140;11.488;2023-02-25T14:05:00;6.00;1.00
4431;DHT22;2228;48.140;11.488;2023-02-25T14:07:37;5.80;1.00
4431;DHT22;2228;48.140;11.488;2023-02-25T14:13:23;5.50;1.00
4431;DHT22;2228;48.140;11.488;2023-02-25T14:16:00;5.50;1.00
4431;DHT22;2228;48.140;11.488;2023-02-25T14:18:43;5.50;1.00
4431;DHT22;2228;48.140;11.488;2023-02-25T14:24:15;5.50;1.00
4431;DHT22;2228;48.140;11.488;2023-02-25T14:26:51;5.50;1.00
4431;DHT22;2228;48.140;11.488;2023-02-25T14:29:30;5.40;1.00
4431;DHT22;2228;48.140;11.488;2023-02-25T14:32:15;5.20;1.00
4431;DHT22;2228;48.140;11.488;2023-02-25T14:34:58;5.10;1.00
4431;DHT22;2228;48.140;11.488;2023-02-25T14:37:35;5.20;1.00
4431;DHT22;2228;48.140;11.488;2023-02-25T14:40:21;5.20;1.00
4431;DHT22;2228;48.140;11.488;2023-02-25T14:43:06;5.10;1.00
4431;DHT22;2228;48.140;11.488;2023-02-25T14:45:39;5.10;1.00
4431;DHT22;2228;48.140;11.488;2023-02-25T14:48:13;5.00;1.00
4431;DHT22;2228;48.140;11.488;2023-02-25T14:50:47;5.00;1.00
4431;DHT22;2228;48.140;11.488;2023-02-25T14:53:38;5.00;1.00
4431;DHT22;2228;48.140;11.488;2023-02-25T14:56:45;4.90;1.00
4431;DHT22;2228;48.140;11.488;2023-02-25T14:59:46;4.70;1.00
4431;DHT22;2228;48.140;11.488;2023-02-25T15:02:29;4.70;1.00
4431;DHT22;2228;48.140;11.488;2023-02-25T15:08:17;4.50;1.00
4431;DHT22;2228;48.140;11.488;2023-02-25T15:10:59;4.60;1.00
4431;DHT22;2228;48.140;11.488;2023-02-25T15:13:47;4.60;1.00
4431;DHT22;2228;48.140;11.488;2023-02-25T15:16:58;4.60;1.00
4431;DHT22;2228;48.140;11.488;2023-02-25T15:22:54;4.70;1.00
4431;DHT22;2228;48.140;11.488;2023-02-25T15:25:36;4.60;1.00
4431;DHT22;2228;48.140;11.488;2023-02-25T15:31:32;4.70;1.00
4431;DHT22;2228;48.140;11.488;2023-02-25T15:34:27;4.70;1.00
4431;DHT22;2228;48.140;11.488;2023-02-25T15:37:17;4.60;1.00
4431;DHT22;2228;48.140;11.488;2023-02-25T15:39:48;4.60;1.00
4431;DHT22;2228;48.140;11.488;2023-02-25T15:42:37;4.70;1.00
4431;DHT22;2228;48.140;11.488;2023-02-25T15:45:40;4.60;1.00
4431;DHT22;2228;48.140;11.488;2023-02-25T15:48:28;4.50;1.00
4431;DHT22;2228;48.140;11.488;2023-02-25T15:50:56;4.40;1.00
4431;DHT22;2228;48.140;11.488;2023-02-25T15:53:42;4.40;1.00
4431;DHT22;2228;48.140;11.488;2023-02-25T15:56:28;4.30;1.00
4431;DHT22;2228;48.140;11.488;2023-02-25T15:58:57;4.30;1.00
4431;DHT22;2228;48.140;11.488;2023-02-25T16:01:39;4.30;1.00
4431;DHT22;2228;48.140;11.488;2023-02-25T16:04:45;4.40;1.00
4431;DHT22;2228;48.140;11.488;2023-02-25T16:07:18;4.40;1.00
4431;DHT22;2228;48.140;11.488;2023-02-25T16:09:51;4.40;1.00
4431;DHT22;2228;48.140;11.488;2023-02-25T16:12:19;4.40;1.00
4431;DHT22;2228;48.140;11.488;2023-02-25T16:14:49;4.50;1.00
4431;DHT22;2228;48.140;11.488;2023-02-25T16:17:18;4.50;1.00
4431;DHT22;2228;48.140;11.488;2023-02-25T16:19:49;4.40;1.00
4431;DHT22;2228;48.140;11.488;2023-02-25T16:22:19;4.60;1.00
4431;DHT22;2228;48.140;11.488;2023-02-25T16:24:49;4.40;1.00
4431;DHT22;2228;48.140;11.488;2023-02-25T16:27:28;4.50;1.00
4431;DHT22;2228;48.140;11.488;2023-02-25T16:30:06;4.40;1.00
4431;DHT22;2228;48.140;11.488;2023-02-25T16:32:41;4.40;1.00
4431;DHT22;2228;48.140;11.488;2023-02-25T16:35:20;4.40;1.00
4431;DHT22;2228;48.140;11.488;2023-02-25T16:37:54;4.40;1.00
4431;DHT22;2228;48.140;11.488;2023-02-25T16:40:26;4.40;1.00
4431;DHT22;2228;48.140;11.488;2023-02-25T16:42:56;4.30;1.00
4431;DHT22;2228;48.140;11.488;2023-02-25T16:45:28;4.20;1.00
4431;DHT22;2228;48.140;11.488;2023-02-25T16:47:57;4.20;1.00
4431;DHT22;2228;48.140;11.488;2023-02-25T16:50:26;4.10;1.00
4431;DHT22;2228;48.140;11.488;2023-02-25T16:52:55;4.10;1.00
4431;DHT22;2228;48.140;11.488;2023-02-25T16:55:25;4.10;1.00
4431;DHT22;2228;48.140;11.488;2023-02-25T16:58:06;4.00;1.00
4431;DHT22;2228;48.140;11.488;2023-02-25T17:00:49;4.00;1.00
4431;DHT22;2228;48.140;11.488;2023-02-25T17:03:18;3.90;1.00
4431;DHT22;2228;48.140;11.488;2023-02-25T17:05:59;3.90;1.00
4431;DHT22;2228;48.140;11.488;2023-02-25T17:08:26;3.70;1.00
4431;DHT22;2228;48.140;11.488;2023-02-25T17:10:56;3.70;1.00
4431;DHT22;2228;48.140;11.488;2023-02-25T17:13:25;3.70;1.00
4431;DHT22;2228;48.140;11.488;2023-02-25T17:15:55;3.80;1.00
4431;DHT22;2228;48.140;11.488;2023-02-25T17:18:25;3.80;1.00
4431;DHT22;2228;48.140;11.488;2023-02-25T17:21:00;3.80;1.00
4431;DHT22;2228;48.140;11.488;2023-02-25T17:23:27;3.80;1.00
4431;DHT22;2228;48.140;11.488;2023-02-25T17:25:56;3.80;1.00
4431;DHT22;2228;48.140;11.488;2023-02-25T17:28:26;3.70;1.00
4431;DHT22;2228;48.140;11.488;2023-02-25T17:31:06;3.80;1.00
4431;DHT22;2228;48.140;11.488;2023-02-25T17:33:34;3.80;1.00
4431;DHT22;2228;48.140;11.488;2023-02-25T17:36:08;3.80;1.00
4431;DHT22;2228;48.140;11.488;2023-02-25T17:38:36;3.80;1.00
4431;DHT22;2228;48.140;11.488;2023-02-25T17:41:04;3.90;1.00
4431;DHT22;2228;48.140;11.488;2023-02-25T17:43:35;3.90;1.00
4431;DHT22;2228;48.140;11.488;2023-02-25T17:46:14;3.90;1.00
4431;DHT22;2228;48.140;11.488;2023-02-25T17:48:49;3.90;1.00
4431;DHT22;2228;48.140;11.488;2023-02-25T17:51:17;4.00;1.00
4431;DHT22;2228;48.140;11.488;2023-02-25T17:53:46;4.00;1.00
4431;DHT22;2228;48.140;11.488;2023-02-25T17:56:19;3.70;1.00
4431;DHT22;2228;48.140;11.488;2023-02-25T17:58:49;3.00;81.50
4431;DHT22;2228;48.140;11.488;2023-02-25T18:01:24;2.60;99.90
4431;DHT22;2228;48.140;11.488;2023-02-25T18:03:52;1.90;1.00
4431;DHT22;2228;48.140;11.488;2023-02-25T18:06:38;1.50;1.00
4431;DHT22;2228;48.140;11.488;2023-02-25T18:09:07;1.20;1.00
4431;DHT22;2228;48.140;11.488;2023-02-25T18:11:53;1.00;1.00
4431;DHT22;2228;48.140;11.488;2023-02-25T18:14:25;1.10;1.00
4431;DHT22;2228;48.140;11.488;2023-02-25T18:16:54;1.10;1.00
4431;DHT22;2228;48.140;11.488;2023-02-25T18:19:25;1.00;1.00
4431;DHT22;2228;48.140;11.488;2023-02-25T18:21:56;1.00;1.00
4431;DHT22;2228;48.140;11.488;2023-02-25T18:24:26;1.10;1.00
4431;DHT22;2228;48.140;11.488;2023-02-25T18:27:16;1.10;1.00
4431;DHT22;2228;48.140;11.488;2023-02-25T18:29:44;1.00;1.00
4431;DHT22;2228;48.140;11.488;2023-02-25T18:32:12;1.00;57.30
4431;DHT22;2228;48.140;11.488;2023-02-25T18:34:40;1.10;61.80
4431;DHT22;2228;48.140;11.488;2023-02-25T18:37:11;1.20;56.00
4431;DHT22;2228;48.140;11.488;2023-02-25T18:39:38;1.30;1.00
4431;DHT22;2228;48.140;11.488;2023-02-25T18:42:07;1.30;1.00
4431;DHT22;2228;48.140;11.488;2023-02-25T18:44:35;1.30;1.00
4431;DHT22;2228;48.140;11.488;2023-02-25T18:47:02;1.40;1.00
4431;DHT22;2228;48.140;11.488;2023-02-25T18:49:30;1.40;1.00
4431;DHT22;2228;48.140;11.488;2023-02-25T18:51:57;1.40;1.00
4431;DHT22;2228;48.140;11.488;2023-02-25T18:54:24;1.40;1.00
4431;DHT22;2228;48.140;11.488;2023-02-25T18:56:51;1.50;1.00
4431;DHT22;2228;48.140;11.488;2023-02-25T18:59:18;1.60;1.00
4431;DHT22;2228;48.140;11.488;2023-02-25T19:01:45;1.50;1.00
4431;DHT22;2228;48.140;11.488;2023-02-25T19:04:14;1.50;1.00
4431;DHT22;2228;48.140;11.488;2023-02-25T19:06:43;1.40;1.00
4431;DHT22;2228;48.140;11.488;2023-02-25T19:09:11;1.40;1.00
4431;DHT22;2228;48.140;11.488;2023-02-25T19:11:38;1.40;1.00
4431;DHT22;2228;48.140;11.488;2023-02-25T19:14:05;1.50;1.00
4431;DHT22;2228;48.140;11.488;2023-02-25T19:16:32;1.50;1.00
4431;DHT22;2228;48.140;11.488;2023-02-25T19:18:59;1.50;1.00
4431;DHT22;2228;48.140;11.488;2023-02-25T19:21:26;1.50;1.00
4431;DHT22;2228;48.140;11.488;2023-02-25T19:23:55;1.60;1.00
4431;DHT22;2228;48.140;11.488;2023-02-25T19:26:22;1.60;1.00
4431;DHT22;2228;48.140;11.488;2023-02-25T19:28:49;1.40;1.00
4431;DHT22;2228;48.140;11.488;2023-02-25T19:31:16;1.50;1.00
4431;DHT22;2228;48.140;11.488;2023-02-25T19:33:43;1.40;1.00
4431;DHT22;2228;48.140;11.488;2023-02-25T19:36:10;1.30;1.00
4431;DHT22;2228;48.140;11.488;2023-02-25T19:38:37;1.40;1.00
4431;DHT22;2228;48.140;11.488;2023-02-25T19:41:05;1.30;1.00
4431;DHT22;2228;48.140;11.488;2023-02-25T19:43:34;1.50;1.00
4431;DHT22;2228;48.140;11.488;2023-02-25T19:46:01;1.40;1.00
4431;DHT22;2228;48.140;11.488;2023-02-25T19:48:29;1.50;1.00
4431;DHT22;2228;48.140;11.488;2023-02-25T19:50:56;1.40;1.00
4431;DHT22;2228;48.140;11.488;2023-02-25T19:53:23;1.30;1.00
4431;DHT22;2228;48.140;11.488;2023-02-25T19:55:55;1.30;1.00
4431;DHT22;2228;48.140;11.488;2023-02-25T19:58:23;1.30;1.00
4431;DHT22;2228;48.140;11.488;2023-02-25T20:00:50;1.30;1.00
4431;DHT22;2228;48.140;11.488;2023-02-25T20:03:17;1.40;1.00
4431;DHT22;2228;48.140;11.488;2023-02-25T20:05:44;1.40;1.00
4431;DHT22;2228;48.140;11.488;2023-02-25T20:08:11;1.40;1.00
4431;DHT22;2228;48.140;11.488;2023-02-25T20:10:41;1.40;1.00
4431;DHT22;2228;48.140;11.488;2023-02-25T20:13:08;1.30;1.00
4431;DHT22;2228;48.140;11.488;2023-02-25T20:15:36;1.40;1.00
4431;DHT22;2228;48.140;11.488;2023-02-25T20:18:03;1.40;1.00
4431;DHT22;2228;48.140;11.488;2023-02-25T20:20:30;1.40;1.00
4431;DHT22;2228;48.140;11.488;2023-02-25T20:22:57;1.40;1.00
4431;DHT22;2228;48.140;11.488;2023-02-25T20:25:24;1.30;1.00
4431;DHT22;2228;48.140;11.488;2023-02-25T20:27:51;1.40;1.00
4431;DHT22;2228;48.140;11.488;2023-02-25T20:30:18;1.40;1.00
4431;DHT22;2228;48.140;11.488;2023-02-25T20:32:46;1.40;1.00
4431;DHT22;2228;48.140;11.488;2023-02-25T20:35:16;1.40;1.00
4431;DHT22;2228;48.140;11.488;2023-02-25T20:40:34;1.50;1.00
4431;DHT22;2228;48.140;11.488;2023-02-25T20:43:01;1.40;1.00
4431;DHT22;2228;48.140;11.488;2023-02-25T20:45:28;1.40;1.00
4431;DHT22;2228;48.140;11.488;2023-02-25T20:47:57;1.40;1.00
4431;DHT22;2228;48.140;11.488;2023-02-25T20:50:26;1.40;1.00
4431;DHT22;2228;48.140;11.488;2023-02-25T20:52:54;1.30;1.00
4431;DHT22;2228;48.140;11.488;2023-02-25T20:55:21;1.10;1.00
4431;DHT22;2228;48.140;11.488;2023-02-25T20:57:48;0.90;1.00
4431;DHT22;2228;48.140;11.488;2023-02-25T21:00:16;0.70;1.00